Terminal Aerodrome Forecast
Issued by NWS

Home | Current Version | Previous Version | Text Only | Print | Product List | Glossary On
Versions: 1 2 3 4 5 6 7 8 9 10 11 12 13 14 15
000
FTUS42 KTAE 251700
TAFVLD
TAF
KVLD 251720Z 2518/2618 21006KT P6SM SCT100
     FM260300 19002KT P6SM OVC100
     FM260600 21003KT P6SM OVC050=

USA.gov is the U.S. government's official web portal to all federal, state and local government web resources and services.